createdAt,value
2019-04-26T00:00:47.951Z,98468.80
2019-04-26T00:01:57.598Z,98472.53
2019-04-26T00:03:07.786Z,98468.16
2019-04-26T00:04:17.064Z,98469.41
2019-04-26T00:05:34.346Z,98467.07
2019-04-26T00:06:35.512Z,98458.86
2019-04-26T00:07:43.531Z,98460.61
2019-04-26T00:08:56.203Z,98464.52
2019-04-26T00:10:54.153Z,98459.43
2019-04-26T00:12:02.064Z,98459.37
2019-04-26T00:13:23.419Z,98453.66
2019-04-26T00:14:36.027Z,98453.85
2019-04-26T00:15:45.783Z,98458.11
2019-04-26T00:16:55.220Z,98455.09
2019-04-26T00:18:04.914Z,98459.83
2019-04-26T00:19:13.827Z,98460.53
2019-04-26T00:20:22.282Z,98455.34
2019-04-26T00:21:31.461Z,98460.42
2019-04-26T00:22:39.700Z,98461.97
2019-04-26T00:23:47.605Z,98459.95
2019-04-26T00:24:56.508Z,98463.22
2019-04-26T00:26:04.408Z,98460.89
2019-04-26T00:27:12.735Z,98457.75
2019-04-26T00:28:21.168Z,98463.52
2019-04-26T00:29:29.537Z,98463.20
2019-04-26T00:30:37.467Z,98466.09
2019-04-26T00:31:45.565Z,98463.08
2019-04-26T00:32:53.608Z,98458.05
2019-04-26T00:34:01.499Z,98460.43
2019-04-26T00:35:09.965Z,98458.96
2019-04-26T00:36:18.685Z,98457.30
2019-04-26T00:37:26.648Z,98454.80
2019-04-26T00:38:35.000Z,98457.14
2019-04-26T00:39:43.404Z,98449.96
2019-04-26T00:40:53.139Z,98452.86
2019-04-26T00:42:01.636Z,98450.67
2019-04-26T00:43:09.994Z,98448.98
2019-04-26T00:44:18.650Z,98451.04
2019-04-26T00:45:30.967Z,98441.48
2019-04-26T00:46:42.075Z,98439.86
2019-04-26T00:47:51.867Z,98437.40
2019-04-26T00:49:03.371Z,98440.88
2019-04-26T00:50:13.763Z,98440.65
2019-04-26T00:51:21.897Z,98436.20
2019-04-26T00:52:31.399Z,98430.05
2019-04-26T00:53:42.580Z,98429.25
2019-04-26T00:54:50.491Z,98432.80
2019-04-26T00:56:00.334Z,98430.61
2019-04-26T00:57:09.018Z,98430.68
2019-04-26T00:58:18.662Z,98427.16
2019-04-26T00:59:28.512Z,98426.00
2019-04-26T01:00:37.424Z,98420.09
2019-04-26T01:01:46.847Z,98421.09
2019-04-26T01:02:56.383Z,98428.86
2019-04-26T01:04:04.973Z,98422.31
2019-04-26T01:05:13.063Z,98426.03
2019-04-26T01:06:23.687Z,98421.16
2019-04-26T01:07:31.850Z,98420.52
2019-04-26T01:08:39.943Z,98415.80
2019-04-26T01:09:48.063Z,98416.52
2019-04-26T01:10:56.067Z,98413.89
2019-04-26T01:12:04.132Z,98412.89
2019-04-26T01:13:12.130Z,98415.14
2019-04-26T01:14:20.023Z,98414.38
2019-04-26T01:15:28.218Z,98410.08
2019-04-26T01:16:36.104Z,98413.00
2019-04-26T01:17:44.102Z,98413.87
2019-04-26T01:18:54.242Z,98404.50
2019-04-26T01:20:03.810Z,98404.86
2019-04-26T01:21:17.098Z,98398.38
2019-04-26T01:22:29.473Z,98401.61
2019-04-26T01:23:41.637Z,98401.31
2019-04-26T01:24:54.639Z,98400.03
2019-04-26T01:26:19.269Z,98403.91
2019-04-26T01:27:31.177Z,98405.82
2019-04-26T01:28:55.359Z,98403.64
2019-04-26T01:30:10.606Z,98404.98
2019-04-26T01:31:19.954Z,98404.48
2019-04-26T01:32:31.004Z,98400.95
2019-04-26T01:33:40.221Z,98399.61
2019-04-26T01:34:51.424Z,98392.36
2019-04-26T01:36:12.118Z,98392.87
2019-04-26T01:37:10.495Z,98388.65
2019-04-26T01:38:19.237Z,98385.13
2019-04-26T01:39:28.375Z,98386.47
2019-04-26T01:40:37.303Z,98383.59
2019-04-26T01:41:51.443Z,98384.09
2019-04-26T01:43:10.501Z,98388.14
2019-04-26T01:44:24.717Z,98382.75
2019-04-26T01:45:36.441Z,98383.91
2019-04-26T01:46:46.852Z,98379.04
2019-04-26T01:47:59.144Z,98377.18
2019-04-26T01:49:11.931Z,98383.91
2019-04-26T01:50:25.290Z,98380.70
2019-04-26T01:51:40.988Z,98376.67
2019-04-26T01:52:49.410Z,98379.68
2019-04-26T01:53:57.696Z,98375.64
2019-04-26T01:55:08.311Z,98382.05
2019-04-26T01:56:21.821Z,98373.66
2019-04-26T01:57:32.295Z,98377.69
2019-04-26T01:58:40.325Z,98376.73
2019-04-26T01:59:54.430Z,98379.06
2019-04-26T02:01:04.667Z,98380.25
2019-04-26T02:02:30.611Z,98376.59
2019-04-26T02:03:38.915Z,98378.28
2019-04-26T02:04:48.954Z,98381.67
2019-04-26T02:05:57.237Z,98372.96
2019-04-26T02:07:05.762Z,98371.11
2019-04-26T02:08:13.728Z,98378.02
2019-04-26T02:09:22.990Z,98370.62
2019-04-26T02:10:31.194Z,98376.00
2019-04-26T02:11:40.282Z,98372.48
2019-04-26T02:12:50.484Z,98371.64
2019-04-26T02:13:58.422Z,98365.42
2019-04-26T02:15:08.154Z,98369.46
2019-04-26T02:16:16.179Z,98371.83
2019-04-26T02:17:25.359Z,98373.69
2019-04-26T02:18:33.843Z,98376.56
2019-04-26T02:19:42.012Z,98380.28
2019-04-26T02:21:04.327Z,98380.28
2019-04-26T02:22:26.491Z,98374.22
2019-04-26T02:23:36.118Z,98369.35
2019-04-26T02:24:45.721Z,98373.06
2019-04-26T02:25:54.141Z,98371.72
2019-04-26T02:27:03.727Z,98371.40
2019-04-26T02:28:11.618Z,98364.67
2019-04-26T02:29:28.611Z,98360.83
2019-04-26T02:30:36.891Z,98353.27
2019-04-26T02:31:48.573Z,98356.63
2019-04-26T02:32:57.109Z,98357.65
2019-04-26T02:34:07.418Z,98357.84
2019-04-26T02:35:15.200Z,98359.70
2019-04-26T02:36:27.509Z,98356.36
2019-04-26T02:37:36.736Z,98361.73
2019-04-26T02:38:46.491Z,98360.58
2019-04-26T02:39:56.207Z,98361.42
2019-04-26T02:41:04.107Z,98352.67
2019-04-26T02:42:19.279Z,98355.36
2019-04-26T02:43:28.646Z,98349.66
2019-04-26T02:44:43.723Z,98352.86
2019-04-26T02:46:10.091Z,98340.44
2019-04-26T02:47:41.964Z,98345.30
2019-04-26T02:49:20.415Z,98343.82
2019-04-26T02:50:39.387Z,98349.03
2019-04-26T02:51:54.669Z,98337.82
2019-04-26T02:53:18.882Z,98334.64
2019-04-26T02:54:52.165Z,98330.84
2019-04-26T02:56:38.256Z,98336.78
2019-04-26T02:57:51.230Z,98333.19
2019-04-26T02:59:03.558Z,98332.59
2019-04-26T03:00:18.638Z,98332.65
2019-04-26T03:01:31.261Z,98330.34
2019-04-26T03:02:40.349Z,98331.37
2019-04-26T03:03:48.466Z,98334.26
2019-04-26T03:05:00.753Z,98337.14
2019-04-26T03:06:08.892Z,98339.50
2019-04-26T03:07:21.312Z,98335.31
2019-04-26T03:08:33.917Z,98333.11
2019-04-26T03:09:45.816Z,98332.63
2019-04-26T03:10:58.137Z,98322.73
2019-04-26T03:12:19.418Z,98315.69
2019-04-26T03:13:35.045Z,98319.06
2019-04-26T03:15:13.149Z,98319.39
2019-04-26T03:16:37.396Z,98322.59
2019-04-26T03:17:54.772Z,98322.77
2019-04-26T03:19:14.628Z,98316.06
2019-04-26T03:20:27.052Z,98312.18
2019-04-26T03:21:53.946Z,98315.55
2019-04-26T03:23:15.036Z,98318.06
2019-04-26T03:24:37.223Z,98315.56
2019-04-26T03:26:11.673Z,98322.59
2019-04-26T03:27:26.700Z,98319.77
2019-04-26T03:28:57.174Z,98307.51
2019-04-26T03:30:22.251Z,98305.19
2019-04-26T03:31:55.265Z,98298.98
2019-04-26T03:33:42.958Z,98297.63
2019-04-26T03:34:55.142Z,98303.16
2019-04-26T03:36:30.108Z,98295.14
2019-04-26T03:38:04.574Z,98293.30
2019-04-26T03:39:21.069Z,98297.19
2019-04-26T03:41:01.530Z,98299.37
2019-04-26T03:42:36.662Z,98302.23
2019-04-26T03:44:01.269Z,98288.53
2019-04-26T03:45:31.471Z,98297.94
2019-04-26T03:46:45.361Z,98303.48
2019-04-26T03:48:03.236Z,98297.97
2019-04-26T03:50:02.571Z,98298.16
2019-04-26T03:51:35.726Z,98296.95
2019-04-26T03:52:48.531Z,98304.50
2019-04-26T03:54:16.154Z,98297.47
2019-04-26T03:55:37.536Z,98303.52
2019-04-26T03:57:00.020Z,98298.98
2019-04-26T03:58:26.189Z,98302.83
2019-04-26T03:59:55.130Z,98300.65
2019-04-26T04:01:12.624Z,98296.95
2019-04-26T04:02:27.817Z,98297.17
2019-04-26T04:03:46.110Z,98294.81
2019-04-26T04:04:59.940Z,98294.48
2019-04-26T04:06:13.356Z,98293.13
2019-04-26T04:07:36.720Z,98298.34
2019-04-26T04:09:05.150Z,98293.98
2019-04-26T04:10:23.194Z,98295.52
2019-04-26T04:11:48.963Z,98292.50
2019-04-26T04:13:06.924Z,98296.85
2019-04-26T04:14:34.930Z,98296.52
2019-04-26T04:15:49.968Z,98301.20
2019-04-26T04:17:12.794Z,98300.01
2019-04-26T04:18:31.212Z,98298.16
2019-04-26T04:19:59.655Z,98296.48
2019-04-26T04:21:30.329Z,98291.95
2019-04-26T04:22:43.962Z,98294.14
2019-04-26T04:24:14.969Z,98292.64
2019-04-26T04:25:33.577Z,98292.14
2019-04-26T04:27:10.033Z,98291.13
2019-04-26T04:28:51.251Z,98285.61
2019-04-26T04:30:24.938Z,98281.91
2019-04-26T04:31:47.631Z,98282.74
2019-04-26T04:33:16.541Z,98280.23
2019-04-26T04:34:45.547Z,98281.73
2019-04-26T04:35:57.723Z,98280.06
2019-04-26T04:37:10.246Z,98284.74
2019-04-26T04:38:34.641Z,98284.92
2019-04-26T04:40:06.104Z,98282.75
2019-04-26T04:41:32.584Z,98278.39
2019-04-26T04:43:12.015Z,98274.38
2019-04-26T04:45:11.118Z,98274.88
2019-04-26T04:46:33.718Z,98276.08
2019-04-26T04:48:19.098Z,98269.01
2019-04-26T04:49:52.262Z,98272.38
2019-04-26T04:51:33.168Z,98264.47
2019-04-26T04:53:01.943Z,98265.13
2019-04-26T04:55:01.729Z,98268.64
2019-04-26T04:56:17.564Z,98269.83
2019-04-26T04:57:55.154Z,98274.69
2019-04-26T04:59:10.322Z,98280.20
2019-04-26T05:00:49.296Z,98270.47
2019-04-26T05:02:26.120Z,98267.94
2019-04-26T05:03:47.462Z,98277.66
2019-04-26T05:05:09.724Z,98272.94
2019-04-26T05:06:53.869Z,98279.98
2019-04-26T05:08:22.942Z,98275.80
2019-04-26T05:09:45.283Z,98272.75
2019-04-26T05:11:24.619Z,98278.27
2019-04-26T05:12:52.139Z,98277.42
2019-04-26T05:14:18.793Z,98277.56
2019-04-26T05:15:44.704Z,98271.86
2019-04-26T05:17:20.774Z,98264.78
2019-04-26T05:19:09.641Z,98269.13
2019-04-26T05:20:39.768Z,98269.30
2019-04-26T05:21:55.105Z,98260.88
2019-04-26T05:23:25.516Z,98256.86
2019-04-26T05:24:57.463Z,98267.41
2019-04-26T05:26:29.270Z,98263.71
2019-04-26T05:28:10.232Z,98259.34
2019-04-26T05:29:48.476Z,98246.94
2019-04-26T05:31:48.664Z,98254.48
2019-04-26T05:33:30.344Z,98263.52
2019-04-26T05:34:56.938Z,98276.93
2019-04-26T05:36:16.416Z,98272.72
2019-04-26T05:37:45.188Z,98267.48
2019-04-26T05:39:26.858Z,98264.45
2019-04-26T05:40:51.522Z,98267.61
2019-04-26T05:43:00.419Z,98270.79
2019-04-26T05:44:35.560Z,98267.73
2019-04-26T05:46:03.795Z,98269.72
2019-04-26T05:47:38.854Z,98266.19
2019-04-26T05:49:19.970Z,98259.93
2019-04-26T05:51:05.688Z,98256.06
2019-04-26T05:52:48.681Z,98257.36
2019-04-26T05:54:37.129Z,98252.80
2019-04-26T05:56:26.283Z,98255.66
2019-04-26T05:57:52.615Z,98247.56
2019-04-26T05:59:28.976Z,98249.88
2019-04-26T06:01:04.032Z,98253.56
2019-04-26T06:02:43.235Z,98248.33
2019-04-26T06:04:30.545Z,98250.16
2019-04-26T06:05:50.960Z,98242.22
2019-04-26T06:07:26.506Z,98244.86
2019-04-26T06:08:59.660Z,98246.17
2019-04-26T06:10:38.912Z,98244.80
2019-04-26T06:12:18.172Z,98239.05
2019-04-26T06:13:53.796Z,98241.70
2019-04-26T06:15:29.599Z,98244.47
2019-04-26T06:17:01.758Z,98236.37
2019-04-26T06:18:46.017Z,98230.96
2019-04-26T06:20:23.675Z,98231.60
2019-04-26T06:22:00.129Z,98232.56
2019-04-26T06:23:30.482Z,98226.64
2019-04-26T06:24:56.290Z,98226.41
2019-04-26T06:27:10.314Z,98229.36
2019-04-26T06:28:26.910Z,98224.26
2019-04-26T06:30:03.184Z,98220.51
2019-04-26T06:31:22.033Z,98213.71
2019-04-26T06:32:55.945Z,98218.06
2019-04-26T06:34:00.921Z,98218.02
2019-04-26T06:35:22.674Z,98216.61
2019-04-26T06:36:36.736Z,98211.70
2019-04-26T06:38:43.675Z,98210.79
2019-04-26T06:39:51.633Z,98210.95
2019-04-26T06:41:28.061Z,98204.77
2019-04-26T06:42:51.957Z,98210.44
2019-04-26T06:44:20.774Z,98206.67
2019-04-26T06:45:46.206Z,98213.16
2019-04-26T06:47:06.716Z,98207.38
2019-04-26T06:48:27.367Z,98215.73
2019-04-26T06:50:03.398Z,98208.59
2019-04-26T06:51:24.714Z,98207.38
2019-04-26T06:52:36.135Z,98203.59
2019-04-26T06:54:00.703Z,98200.34
2019-04-26T06:55:39.996Z,98205.65
2019-04-26T06:57:21.242Z,98204.05
2019-04-26T06:59:03.822Z,98204.00
2019-04-26T07:00:23.602Z,98206.76
2019-04-26T07:01:38.543Z,98208.37
2019-04-26T07:03:09.240Z,98208.95
2019-04-26T07:04:24.689Z,98207.34
2019-04-26T07:05:42.823Z,98205.02
2019-04-26T07:07:33.040Z,98207.66
2019-04-26T07:08:57.704Z,98206.53
2019-04-26T07:10:11.531Z,98202.02
2019-04-26T07:11:37.374Z,98201.45
2019-04-26T07:13:16.907Z,98205.55
2019-04-26T07:14:58.063Z,98208.80
2019-04-26T07:16:35.897Z,98210.37
2019-04-26T07:18:06.395Z,98204.70
2019-04-26T07:19:58.434Z,98206.09
2019-04-26T07:21:17.268Z,98201.27
2019-04-26T07:22:51.033Z,98205.17
2019-04-26T07:24:29.374Z,98197.50
2019-04-26T07:26:10.011Z,98199.61
2019-04-26T07:27:34.230Z,98204.94
2019-04-26T07:29:13.666Z,98203.70
2019-04-26T07:30:55.181Z,98193.00
2019-04-26T07:32:40.551Z,98199.37
2019-04-26T07:34:16.985Z,98195.22
2019-04-26T07:35:40.673Z,98197.33
2019-04-26T07:37:11.882Z,98196.73
2019-04-26T07:39:18.287Z,98197.98
2019-04-26T07:41:15.768Z,98198.52
2019-04-26T07:43:15.587Z,98191.70
2019-04-26T07:44:38.302Z,98202.91
2019-04-26T07:46:20.832Z,98184.94
2019-04-26T07:48:21.126Z,98198.97
2019-04-26T07:50:17.662Z,98191.48
2019-04-26T07:52:12.665Z,98187.33
2019-04-26T07:54:07.345Z,98198.57
2019-04-26T07:56:05.531Z,98194.41
2019-04-26T07:57:25.233Z,98189.45
2019-04-26T07:59:20.089Z,98191.34
2019-04-26T08:00:44.949Z,98184.47
2019-04-26T08:02:06.677Z,98182.65
2019-04-26T08:03:32.863Z,98184.02
2019-04-26T08:04:48.521Z,98179.35
2019-04-26T08:06:07.509Z,98186.33
2019-04-26T08:07:23.141Z,98181.42
2019-04-26T08:08:50.436Z,98180.51
2019-04-26T08:10:14.875Z,98184.88
2019-04-26T08:11:39.332Z,98181.56
2019-04-26T08:12:57.468Z,98173.33
2019-04-26T08:14:18.606Z,98180.83
2019-04-26T08:15:36.510Z,98181.88
2019-04-26T08:16:59.046Z,98175.52
2019-04-26T08:18:13.324Z,98180.00
2019-04-26T08:19:25.844Z,98177.48
2019-04-26T08:20:48.505Z,98181.96
2019-04-26T08:22:11.410Z,98171.05
2019-04-26T08:23:28.179Z,98174.48
2019-04-26T08:24:28.254Z,98173.87
2019-04-26T08:25:40.950Z,98175.62
2019-04-26T08:27:13.738Z,98180.59
2019-04-26T08:28:21.845Z,98179.05
2019-04-26T08:29:34.615Z,98183.51
2019-04-26T08:30:47.012Z,98179.87
2019-04-26T08:31:59.248Z,98175.59
2019-04-26T08:33:13.088Z,98182.23
2019-04-26T08:34:28.914Z,98181.39
2019-04-26T08:35:38.811Z,98175.56
2019-04-26T08:36:57.230Z,98177.09
2019-04-26T08:38:16.103Z,98175.55
2019-04-26T08:39:32.484Z,98179.17
2019-04-26T08:40:39.550Z,98180.95
2019-04-26T08:41:50.033Z,98181.55
2019-04-26T08:43:11.571Z,98182.16
2019-04-26T08:44:25.327Z,98175.29
2019-04-26T08:45:44.120Z,98178.38
2019-04-26T08:47:16.968Z,98175.05
2019-04-26T08:48:34.422Z,98175.43
2019-04-26T08:49:49.191Z,98169.11
2019-04-26T08:51:01.768Z,98169.27
2019-04-26T08:52:14.482Z,98165.93
2019-04-26T08:53:25.745Z,98166.13
2019-04-26T08:54:37.834Z,98173.58
2019-04-26T08:55:49.444Z,98166.39
2019-04-26T08:57:05.745Z,98161.66
2019-04-26T08:58:18.410Z,98166.13
2019-04-26T08:59:31.093Z,98164.33
2019-04-26T09:01:00.947Z,98168.20
2019-04-26T09:02:26.999Z,98168.28
2019-04-26T09:03:43.872Z,98166.81
2019-04-26T09:05:11.415Z,98163.13
2019-04-26T09:06:27.666Z,98164.56
2019-04-26T09:07:40.052Z,98157.06
2019-04-26T09:08:51.940Z,98157.02
2019-04-26T09:10:10.590Z,98154.16
2019-04-26T09:11:25.980Z,98158.11
2019-04-26T09:12:30.793Z,98161.19
2019-04-26T09:13:43.274Z,98157.76
2019-04-26T09:14:55.779Z,98150.03
2019-04-26T09:16:10.627Z,98143.13
2019-04-26T09:17:18.838Z,98156.83
2019-04-26T09:18:27.918Z,98152.34
2019-04-26T09:19:35.915Z,98145.11
2019-04-26T09:20:44.333Z,98143.09
2019-04-26T09:21:54.272Z,98145.35
2019-04-26T09:23:20.720Z,98146.48
2019-04-26T09:24:46.028Z,98145.75
2019-04-26T09:25:59.334Z,98139.64
2019-04-26T09:27:22.888Z,98145.77
2019-04-26T09:28:32.994Z,98144.78
2019-04-26T09:29:45.310Z,98137.11
2019-04-26T09:31:11.085Z,98142.70
2019-04-26T09:32:24.168Z,98134.09
2019-04-26T09:33:47.057Z,98139.98
2019-04-26T09:34:55.099Z,98127.34
2019-04-26T09:36:03.417Z,98125.86
2019-04-26T09:37:11.848Z,98127.08
2019-04-26T09:38:19.901Z,98122.01
2019-04-26T09:39:28.489Z,98127.30
2019-04-26T09:40:36.463Z,98124.95
2019-04-26T09:41:44.438Z,98130.54
2019-04-26T09:43:04.616Z,98123.28
2019-04-26T09:44:14.106Z,98128.88
2019-04-26T09:45:42.366Z,98122.15
2019-04-26T09:47:08.477Z,98123.07
2019-04-26T09:48:17.986Z,98123.22
2019-04-26T09:49:32.326Z,98114.91
2019-04-26T09:50:44.752Z,98114.52
2019-04-26T09:51:52.854Z,98114.67
2019-04-26T09:53:00.881Z,98109.36
2019-04-26T09:54:09.273Z,98105.97
2019-04-26T09:55:17.367Z,98111.88
2019-04-26T09:56:25.409Z,98111.16
2019-04-26T09:57:33.785Z,98108.59
2019-04-26T09:58:42.194Z,98116.89
2019-04-26T09:59:50.266Z,98117.54
2019-04-26T10:00:58.508Z,98115.50
2019-04-26T10:02:06.929Z,98111.86
2019-04-26T10:03:15.064Z,98111.22
2019-04-26T10:04:23.014Z,98112.63
2019-04-26T10:05:31.442Z,98096.78
2019-04-26T10:06:39.434Z,98111.64
2019-04-26T10:07:47.672Z,98103.70
2019-04-26T10:08:55.623Z,98105.82
2019-04-26T10:10:03.572Z,98097.67
2019-04-26T10:11:13.273Z,98103.70
2019-04-26T10:12:26.036Z,98099.88
2019-04-26T10:13:38.437Z,98096.70
2019-04-26T10:14:51.772Z,98105.80
2019-04-26T10:16:07.396Z,98094.92
2019-04-26T10:17:17.446Z,98094.41
2019-04-26T10:18:26.049Z,98095.16
2019-04-26T10:19:35.756Z,98095.41
2019-04-26T10:20:43.680Z,98095.33
2019-04-26T10:21:51.549Z,98090.11
2019-04-26T10:22:59.856Z,98092.62
2019-04-26T10:24:08.428Z,98088.11
2019-04-26T10:25:17.136Z,98086.84
2019-04-26T10:26:28.239Z,98083.73
2019-04-26T10:27:36.501Z,98075.03
2019-04-26T10:28:46.755Z,98078.28
2019-04-26T10:29:56.557Z,98084.83
2019-04-26T10:31:05.094Z,98073.80
2019-04-26T10:32:13.526Z,98075.66
2019-04-26T10:33:21.561Z,98076.42
2019-04-26T10:34:29.648Z,98074.41
2019-04-26T10:35:37.864Z,98078.08
2019-04-26T10:36:45.820Z,98071.05
2019-04-26T10:37:53.698Z,98078.84
2019-04-26T10:39:01.621Z,98067.16
2019-04-26T10:40:10.119Z,98066.68
2019-04-26T10:41:17.970Z,98071.74
2019-04-26T10:42:26.073Z,98065.77
2019-04-26T10:43:34.093Z,98059.48
2019-04-26T10:44:42.402Z,98063.05
2019-04-26T10:45:53.965Z,98058.97
2019-04-26T10:47:04.171Z,98062.84
2019-04-26T10:48:13.816Z,98059.28
2019-04-26T10:49:42.741Z,98061.17
2019-04-26T10:50:52.073Z,98067.23
2019-04-26T10:52:00.174Z,98061.20
2019-04-26T10:53:13.765Z,98057.94
2019-04-26T10:54:23.999Z,98057.11
2019-04-26T10:55:46.367Z,98064.56
2019-04-26T10:56:57.349Z,98051.90
2019-04-26T10:58:08.679Z,98060.35
2019-04-26T10:59:27.218Z,98057.21
2019-04-26T11:00:39.589Z,98048.32
2019-04-26T11:01:47.509Z,98053.09
2019-04-26T11:02:55.430Z,98050.73
2019-04-26T11:04:03.521Z,98045.81
2019-04-26T11:05:18.153Z,98050.27
2019-04-26T11:06:24.024Z,98042.59
2019-04-26T11:07:31.514Z,98046.45
2019-04-26T11:08:39.763Z,98044.77
2019-04-26T11:09:47.802Z,98043.66
2019-04-26T11:10:55.806Z,98043.67
2019-04-26T11:12:03.657Z,98034.06
2019-04-26T11:13:11.541Z,98034.69
2019-04-26T11:14:22.720Z,98035.05
2019-04-26T11:15:32.657Z,98035.75
2019-04-26T11:16:41.245Z,98039.95
2019-04-26T11:17:50.012Z,98037.19
2019-04-26T11:19:01.137Z,98038.90
2019-04-26T11:20:10.481Z,98036.39
2019-04-26T11:21:20.978Z,98034.87
2019-04-26T11:22:29.191Z,98030.81
2019-04-26T11:23:41.025Z,98035.26
2019-04-26T11:24:50.092Z,98036.66
2019-04-26T11:25:57.961Z,98032.73
2019-04-26T11:27:09.808Z,98031.92
2019-04-26T11:28:17.120Z,98029.39
2019-04-26T11:29:28.845Z,98033.48
2019-04-26T11:30:36.504Z,98021.30
2019-04-26T11:31:44.655Z,98021.48
2019-04-26T11:32:53.090Z,98020.83
2019-04-26T11:34:05.434Z,98022.46
2019-04-26T11:35:11.062Z,98014.17
2019-04-26T11:36:19.208Z,98013.27
2019-04-26T11:37:27.427Z,98013.80
2019-04-26T11:38:35.473Z,98009.41
2019-04-26T11:39:43.361Z,98013.41
2019-04-26T11:41:05.088Z,98010.77
2019-04-26T11:42:01.237Z,98005.86
2019-04-26T11:43:09.226Z,98002.98
2019-04-26T11:44:17.216Z,97983.98
2019-04-26T11:45:25.326Z,98010.95
2019-04-26T11:46:44.197Z,98008.38
2019-04-26T11:47:55.528Z,98013.83
2019-04-26T11:48:58.869Z,98019.63
2019-04-26T11:50:02.960Z,98010.80
2019-04-26T11:51:11.063Z,98014.23
2019-04-26T11:52:19.591Z,98011.16
2019-04-26T11:53:27.745Z,98011.87
2019-04-26T11:54:35.853Z,98012.28
2019-04-26T11:55:45.861Z,97999.41
2019-04-26T11:56:53.962Z,98003.11
2019-04-26T11:58:01.967Z,98001.20
2019-04-26T11:59:09.783Z,98002.73
2019-04-26T12:00:27.510Z,97994.06
2019-04-26T12:01:36.624Z,97998.08
2019-04-26T12:02:46.388Z,98000.98
2019-04-26T12:04:12.989Z,98009.14
2019-04-26T12:05:29.770Z,97996.70
2019-04-26T12:06:48.185Z,97990.59
2019-04-26T12:08:03.809Z,97990.56
2019-04-26T12:09:30.009Z,97989.35
2019-04-26T12:10:40.499Z,98001.91
2019-04-26T12:11:50.981Z,97996.66
2019-04-26T12:13:05.611Z,97997.02
2019-04-26T12:14:19.367Z,98002.48
2019-04-26T12:15:29.486Z,97991.72
2019-04-26T12:16:26.122Z,97999.06
2019-04-26T12:17:35.104Z,97989.47
2019-04-26T12:18:45.429Z,97996.28
2019-04-26T12:19:53.964Z,97995.34
2019-04-26T12:21:02.183Z,97982.99
2019-04-26T12:22:10.252Z,97990.15
2019-04-26T12:23:20.490Z,97988.02
2019-04-26T12:24:29.552Z,97980.70
2019-04-26T12:25:38.893Z,97982.95
2019-04-26T12:26:47.220Z,97983.33
2019-04-26T12:27:55.392Z,97985.16
2019-04-26T12:29:03.258Z,97981.77
2019-04-26T12:30:12.425Z,97981.63
2019-04-26T12:31:20.348Z,97981.55
2019-04-26T12:32:28.296Z,97974.30
2019-04-26T12:33:39.161Z,97976.91
2019-04-26T12:34:45.763Z,97981.97
2019-04-26T12:35:57.096Z,97982.92
2019-04-26T12:37:03.678Z,97973.92
2019-04-26T12:38:11.664Z,97981.13
2019-04-26T12:39:20.195Z,97977.84
2019-04-26T12:40:28.160Z,97980.27
2019-04-26T12:41:40.238Z,97980.47
2019-04-26T12:42:47.319Z,97971.20
2019-04-26T12:43:59.650Z,97971.28
2019-04-26T12:45:16.687Z,97973.77
2019-04-26T12:46:34.368Z,97970.52
2019-04-26T12:47:44.852Z,97970.97
2019-04-26T12:48:52.942Z,97974.09
2019-04-26T12:50:00.895Z,97975.05
2019-04-26T12:51:12.097Z,97974.88
2019-04-26T12:52:21.569Z,97972.57
2019-04-26T12:53:31.340Z,97975.15
2019-04-26T12:54:38.995Z,97971.16
2019-04-26T12:55:49.094Z,97975.73
2019-04-26T12:56:57.289Z,97965.63
2019-04-26T12:58:05.466Z,97973.77
2019-04-26T12:59:15.727Z,97969.27
2019-04-26T13:00:25.040Z,97975.66
2019-04-26T13:01:33.134Z,97971.47
2019-04-26T13:02:41.171Z,97971.38
2019-04-26T13:04:08.603Z,97968.25
2019-04-26T13:05:18.951Z,97970.61
2019-04-26T13:06:27.811Z,97971.28
2019-04-26T13:07:39.103Z,97967.45
2019-04-26T13:08:47.204Z,97976.39
2019-04-26T13:10:07.193Z,97975.16
2019-04-26T13:11:17.802Z,97971.83
2019-04-26T13:12:29.873Z,97968.76
2019-04-26T13:13:38.676Z,97966.41
2019-04-26T13:14:51.292Z,97968.55
2019-04-26T13:16:00.888Z,97965.20
2019-04-26T13:17:13.297Z,97968.02
2019-04-26T13:18:21.509Z,97959.81
2019-04-26T13:19:29.827Z,97959.88
2019-04-26T13:20:37.784Z,97960.14
2019-04-26T13:21:46.148Z,97959.69
2019-04-26T13:22:55.864Z,97963.25
2019-04-26T13:24:05.882Z,97963.25
2019-04-26T13:25:17.404Z,97959.37
2019-04-26T13:26:23.956Z,97965.08
2019-04-26T13:27:31.756Z,97960.45
2019-04-26T13:28:39.876Z,97964.70
2019-04-26T13:29:48.344Z,97964.00
2019-04-26T13:30:57.142Z,97965.05
2019-04-26T13:32:06.638Z,97961.98
2019-04-26T13:33:14.586Z,97962.62
2019-04-26T13:34:22.475Z,97963.18
2019-04-26T13:35:31.649Z,97958.45
2019-04-26T13:36:39.490Z,97960.27
2019-04-26T13:37:47.517Z,97962.64
2019-04-26T13:38:55.450Z,97953.14
2019-04-26T13:40:03.599Z,97961.01
2019-04-26T13:41:11.632Z,97954.81
2019-04-26T13:42:19.727Z,97958.08
2019-04-26T13:43:28.734Z,97957.60
2019-04-26T13:44:47.430Z,97955.03
2019-04-26T13:46:13.045Z,97958.24
2019-04-26T13:47:35.939Z,97957.00
2019-04-26T13:48:55.904Z,97950.76
2019-04-26T13:50:07.477Z,97947.66
2019-04-26T13:51:18.026Z,97948.47
2019-04-26T13:52:26.004Z,97944.88
2019-04-26T13:53:33.871Z,97945.22
2019-04-26T13:54:41.941Z,97945.84
2019-04-26T13:55:49.867Z,97946.47
2019-04-26T13:56:57.593Z,97941.52
2019-04-26T13:58:05.997Z,97943.15
2019-04-26T13:59:13.993Z,97950.23
2019-04-26T14:00:23.767Z,97946.09
2019-04-26T14:01:31.651Z,97942.06
2019-04-26T14:02:39.518Z,97938.55
2019-04-26T14:03:47.507Z,97944.11
2019-04-26T14:04:55.398Z,97945.50
2019-04-26T14:06:03.356Z,97946.19
2019-04-26T14:07:11.424Z,97946.13
2019-04-26T14:08:19.999Z,97950.64
2019-04-26T14:09:27.958Z,97949.10
2019-04-26T14:10:35.923Z,97945.44
2019-04-26T14:11:44.181Z,97941.13
2019-04-26T14:12:52.197Z,97945.45
2019-04-26T14:14:01.786Z,97944.95
2019-04-26T14:15:10.304Z,97950.59
2019-04-26T14:16:21.116Z,97947.11
2019-04-26T14:17:29.822Z,97948.30
2019-04-26T14:18:39.087Z,97944.75
2019-04-26T14:19:49.500Z,97945.59
2019-04-26T14:20:58.937Z,97945.67
2019-04-26T14:22:08.169Z,97948.97
2019-04-26T14:23:16.440Z,97939.69
2019-04-26T14:24:26.024Z,97947.68
2019-04-26T14:25:51.746Z,97942.76
2019-04-26T14:27:01.520Z,97943.86
2019-04-26T14:28:09.702Z,97940.29
2019-04-26T14:29:17.739Z,97947.16
2019-04-26T14:30:25.784Z,97939.78
2019-04-26T14:31:33.841Z,97937.85
2019-04-26T14:32:42.687Z,97940.05
2019-04-26T14:33:51.117Z,97941.16
2019-04-26T14:35:01.337Z,97939.22
2019-04-26T14:36:17.691Z,97945.55
2019-04-26T14:37:18.671Z,97945.55
2019-04-26T14:38:28.055Z,97938.38
2019-04-26T14:39:49.634Z,97944.44
2019-04-26T14:40:46.233Z,97935.11
2019-04-26T14:41:57.070Z,97940.89
2019-04-26T14:43:07.536Z,97944.76
2019-04-26T14:44:15.601Z,97938.72
2019-04-26T14:45:24.218Z,97941.77
2019-04-26T14:46:32.389Z,97942.03
2019-04-26T14:47:47.119Z,97940.66
2019-04-26T14:49:01.048Z,97945.59
2019-04-26T14:50:13.123Z,97943.41
2019-04-26T14:51:12.413Z,97942.61
2019-04-26T14:52:19.527Z,97942.63
2019-04-26T14:53:27.788Z,97944.83
2019-04-26T14:54:35.812Z,97945.13
2019-04-26T14:55:43.970Z,97943.23
2019-04-26T14:56:52.661Z,97945.41
2019-04-26T14:58:02.027Z,97942.14
2019-04-26T14:59:11.893Z,97944.31
2019-04-26T15:00:22.393Z,97942.13
2019-04-26T15:01:32.319Z,97945.41
2019-04-26T15:02:48.483Z,97935.81